Impacts METAR Board
IDs:

KCVG - Cincinnati Intl, KY, US

Updated at: 0100 UTC 31 May 2020
Potential Impact None Slight Moderate High
Time 30/13Z 30/14Z 30/15Z 30/16Z 30/17Z 30/18Z 30/19Z 30/20Z 30/21Z 30/22Z 30/23Z 31/00Z 31/01Z
Temp63 65 68 68 68 71 72 72 71 73 72 71 67
Dewpt53 51 51 48 49 50 48 48 47 47 47 47 47
Altim30.12 30.14 30.14 30.13 30.13 30.13 30.12 30.13 30.12 30.13 30.11 30.12 30.13
VIS10 10 10 10 10 10 10 10 10 10 10 10 10
CIG-- -- -- -- -- -- -- -- -- 55 -- -- --
CoverCLRCLRCLRSCTSCTSCTSCTSCTSCTBKNSCTFEWFEW
FltCatVFRVFRVFRVFRVFRVFRVFRVFRVFRVFRVFRVFRVFR
WX--------------------------
WDir350360340340310300320330340360350340350
WSpd10 8 10 13 13 9 14 12 10 10 7 10 8
WGst-- -- -- -- 17 -- -- 17 -- -- 18 -- --
Raw hourly METARs
KCVG 301252Z 35010KT 10SM CLR 17/12 A3012 RMK AO2 SLP193 T01720117
KCVG 301352Z 36008KT 10SM CLR 18/11 A3014 RMK AO2 SLP199 T01830106
KCVG 301452Z 34010KT 10SM CLR 20/11 A3014 RMK AO2 SLP198 T02000106 50008
KCVG 301552Z 34013KT 10SM SCT040 20/09 A3013 RMK AO2 SLP198 T02000089
KCVG 301652Z 31013G17KT 10SM SCT040 SCT050 20/09 A3013 RMK AO2 SLP197 T02000094 $
KCVG 301752Z 30009KT 10SM SCT045 22/10 A3013 RMK AO2 SLP196 T02170100 10228 20161 57002 $
KCVG 301852Z 32014KT 10SM SCT050 22/09 A3012 RMK AO2 SLP194 T02220089 $
KCVG 301952Z 33012G17KT 10SM SCT055 22/09 A3013 RMK AO2 SLP196 T02220089 $
KCVG 302052Z 34010KT 10SM SCT055 22/08 A3012 RMK AO2 SLP194 T02170083 57003 $
KCVG 302152Z 36010KT 10SM BKN055 23/08 A3013 RMK AO2 SLP195 T02280083 $
KCVG 302252Z 35007G18KT 10SM SCT055 SCT250 22/08 A3011 RMK AO2 SLP190 T02220083 $
KCVG 302352Z 34010KT 10SM FEW060 FEW250 22/08 A3012 RMK AO2 SLP193 T02170083 10233 20211 55001 $
KCVG 310052Z 35008KT 10SM FEW060 19/08 A3013 RMK AO2 SLP197 T01940083 $



Page loaded:  01:24 UTC  |   06:24 PM Pacific  |   07:24 PM Mountain  |   08:24 PM Central  |   09:24 PM Eastern

 

ADVISORIES

FORECASTS

FORECASTS

OBSERVATIONS

USER TOOLS

ABOUT US